createdAt,value
2023-01-19T00:04:30.008Z,1.85
2023-01-19T00:09:38.548Z,1.85
2023-01-19T00:14:44.240Z,1.80
2023-01-19T00:19:50.080Z,1.79
2023-01-19T00:24:55.800Z,1.83
2023-01-19T00:30:02.396Z,1.83
2023-01-19T00:35:09.257Z,1.83
2023-01-19T00:40:15.519Z,1.85
2023-01-19T00:45:23.297Z,1.90
2023-01-19T00:50:30.942Z,1.91
2023-01-19T00:55:36.630Z,1.91
2023-01-19T01:00:42.802Z,1.92
2023-01-19T01:05:49.002Z,1.95
2023-01-19T01:10:56.677Z,1.97
2023-01-19T01:16:02.488Z,1.94
2023-01-19T01:21:09.799Z,1.96
2023-01-19T01:26:15.627Z,2.05
2023-01-19T01:31:21.419Z,2.07
2023-01-19T01:36:29.329Z,2.02
2023-01-19T01:41:35.421Z,1.97
2023-01-19T01:46:41.174Z,1.89
2023-01-19T01:51:50.777Z,1.82
2023-01-19T01:57:01.219Z,1.70
2023-01-19T02:02:30.253Z,1.56
2023-01-19T02:08:02.281Z,1.42
2023-01-19T02:13:18.727Z,1.37
2023-01-19T02:18:29.932Z,1.38
2023-01-19T02:23:42.030Z,1.43
2023-01-19T02:28:53.659Z,1.47
2023-01-19T02:34:00.148Z,1.56
2023-01-19T02:39:08.773Z,1.67
2023-01-19T02:44:17.411Z,1.75
2023-01-19T02:49:23.456Z,1.75
2023-01-19T02:54:37.593Z,1.70
2023-01-19T02:59:58.842Z,1.73
2023-01-19T03:05:35.805Z,1.80
2023-01-19T03:10:58.251Z,1.78
2023-01-19T03:16:16.430Z,1.77
2023-01-19T03:21:26.265Z,1.75
2023-01-19T03:26:36.337Z,1.76
2023-01-19T03:34:28.608Z,1.79
2023-01-19T03:39:36.035Z,1.71
2023-01-19T03:44:45.572Z,1.67
2023-01-19T03:49:53.302Z,1.71
2023-01-19T03:54:59.768Z,1.70
2023-01-19T04:00:07.747Z,1.71
2023-01-19T04:05:19.175Z,1.68
2023-01-19T04:10:25.358Z,1.70
2023-01-19T04:15:31.817Z,1.75
2023-01-19T04:20:39.503Z,1.78
2023-01-19T04:25:45.490Z,1.74
2023-01-19T04:30:52.841Z,1.78
2023-01-19T04:35:59.739Z,1.84
2023-01-19T04:41:06.683Z,1.82
2023-01-19T04:46:12.688Z,1.79
2023-01-19T04:51:18.492Z,1.75
2023-01-19T04:56:24.525Z,1.74
2023-01-19T05:01:30.811Z,1.77
2023-01-19T05:06:37.374Z,1.77
2023-01-19T05:11:43.335Z,1.72
2023-01-19T05:16:49.081Z,1.67
2023-01-19T05:21:54.934Z,1.63
2023-01-19T05:27:01.952Z,1.66
2023-01-19T05:32:09.547Z,1.68
2023-01-19T05:37:17.496Z,1.69
2023-01-19T05:42:23.948Z,1.69
2023-01-19T05:47:30.445Z,1.73
2023-01-19T05:52:37.377Z,1.81
2023-01-19T05:57:43.997Z,1.86
2023-01-19T06:02:50.221Z,1.83
2023-01-19T06:07:58.069Z,1.80
2023-01-19T06:13:04.299Z,1.84
2023-01-19T06:18:10.472Z,1.89
2023-01-19T06:23:16.992Z,1.84
2023-01-19T06:28:23.742Z,1.80
2023-01-19T06:33:30.060Z,1.82
2023-01-19T06:38:36.670Z,1.85
2023-01-19T06:43:42.989Z,1.84
2023-01-19T06:48:49.251Z,1.82
2023-01-19T06:53:55.475Z,1.81
2023-01-19T06:59:01.468Z,1.81
2023-01-19T07:04:07.723Z,1.84
2023-01-19T07:09:15.639Z,1.84
2023-01-19T07:14:24.432Z,1.86
2023-01-19T07:19:31.205Z,1.90
2023-01-19T07:24:38.395Z,1.96
2023-01-19T07:29:45.093Z,1.99
2023-01-19T07:34:51.260Z,2.00
2023-01-19T07:39:57.488Z,2.00
2023-01-19T07:45:04.282Z,2.04
2023-01-19T07:50:13.996Z,2.07
2023-01-19T07:55:21.084Z,2.04
2023-01-19T08:00:27.436Z,2.00
2023-01-19T08:05:35.553Z,1.94
2023-01-19T08:10:41.774Z,1.97
2023-01-19T08:15:51.919Z,2.03
2023-01-19T08:21:00.280Z,2.03
2023-01-19T08:26:20.055Z,2.07
2023-01-19T08:31:26.452Z,2.11
2023-01-19T08:36:32.441Z,2.15
2023-01-19T08:41:38.830Z,2.16
2023-01-19T08:46:44.621Z,2.16
2023-01-19T08:51:50.758Z,2.19
2023-01-19T08:56:56.583Z,2.22
2023-01-19T09:02:02.555Z,2.22
2023-01-19T09:07:08.968Z,2.20
2023-01-19T09:12:15.158Z,2.22
2023-01-19T09:17:21.111Z,2.21
2023-01-19T09:22:27.270Z,2.26
2023-01-19T09:27:34.002Z,2.26
2023-01-19T09:32:40.117Z,2.21
2023-01-19T09:37:49.069Z,2.22
2023-01-19T09:42:59.423Z,2.26
2023-01-19T09:48:18.344Z,2.24
2023-01-19T09:53:36.187Z,2.19
2023-01-19T09:58:44.170Z,2.22
2023-01-19T10:03:53.732Z,2.27
2023-01-19T10:09:07.316Z,2.31
2023-01-19T10:14:21.272Z,2.29
2023-01-19T10:19:33.669Z,2.28
2023-01-19T10:24:43.923Z,2.24
2023-01-19T10:29:50.524Z,2.23
2023-01-19T10:35:01.067Z,2.23
2023-01-19T10:40:22.535Z,2.28
2023-01-19T10:45:30.338Z,2.35
2023-01-19T10:50:41.335Z,2.32
2023-01-19T10:55:47.547Z,2.35
2023-01-19T11:00:53.950Z,2.35
2023-01-19T11:06:22.135Z,2.41
2023-01-19T11:11:28.240Z,2.52
2023-01-19T11:16:38.145Z,2.53
2023-01-19T11:21:44.364Z,2.55
2023-01-19T11:26:57.637Z,2.60
2023-01-19T11:32:19.960Z,2.61
2023-01-19T11:37:34.546Z,2.69
2023-01-19T11:42:40.650Z,2.79
2023-01-19T11:47:49.740Z,2.89
2023-01-19T11:53:00.788Z,2.95
2023-01-19T11:58:06.547Z,2.93
2023-01-19T12:03:19.928Z,2.99
2023-01-19T12:08:30.986Z,3.10
2023-01-19T12:13:36.191Z,3.17
2023-01-19T12:18:45.240Z,3.17
2023-01-19T12:24:01.849Z,3.14
2023-01-19T12:29:14.307Z,3.15
2023-01-19T12:34:42.647Z,3.14
2023-01-19T12:39:51.395Z,3.16
2023-01-19T12:45:08.493Z,3.13
2023-01-19T12:50:21.087Z,3.01
2023-01-19T12:55:31.230Z,2.94
2023-01-19T13:00:39.943Z,2.87
2023-01-19T13:05:55.070Z,2.82
2023-01-19T13:11:18.414Z,2.79
2023-01-19T13:16:58.997Z,2.82
2023-01-19T13:23:04.064Z,2.85
2023-01-19T13:28:14.325Z,2.90
2023-01-19T13:33:23.948Z,2.93
2023-01-19T13:38:32.952Z,2.88
2023-01-19T13:43:39.838Z,2.89
2023-01-19T13:48:58.338Z,2.97
2023-01-19T13:54:06.281Z,3.00
2023-01-19T13:59:14.851Z,3.00
2023-01-19T14:04:32.475Z,2.97
2023-01-19T14:09:39.077Z,2.97
2023-01-19T14:14:48.288Z,2.97
2023-01-19T14:19:56.508Z,2.97
2023-01-19T14:25:26.597Z,2.86
2023-01-19T14:30:35.992Z,2.78
2023-01-19T14:35:43.604Z,2.74
2023-01-19T14:40:50.318Z,2.77
2023-01-19T14:45:58.565Z,2.78
2023-01-19T14:51:06.548Z,2.76
2023-01-19T14:56:12.749Z,2.71
2023-01-19T15:01:18.769Z,2.66
2023-01-19T15:06:26.544Z,2.67
2023-01-19T15:11:34.483Z,2.66
2023-01-19T15:16:41.160Z,2.64
2023-01-19T15:21:47.569Z,2.59
2023-01-19T15:26:53.543Z,2.56
2023-01-19T15:32:00.273Z,2.60
2023-01-19T15:37:07.980Z,2.61
2023-01-19T15:42:15.099Z,2.56
2023-01-19T15:47:21.515Z,2.58
2023-01-19T15:52:27.763Z,2.61
2023-01-19T15:57:35.171Z,2.64
2023-01-19T16:02:41.528Z,2.64
2023-01-19T16:07:47.878Z,2.55
2023-01-19T16:12:53.926Z,2.52
2023-01-19T16:18:00.489Z,2.52
2023-01-19T16:23:21.599Z,2.51
2023-01-19T16:28:28.975Z,2.44
2023-01-19T16:33:34.995Z,2.35
2023-01-19T16:38:40.921Z,2.33
2023-01-19T16:43:54.577Z,2.37
2023-01-19T16:49:03.784Z,2.38
2023-01-19T16:54:12.329Z,2.37
2023-01-19T16:59:19.768Z,2.33
2023-01-19T17:04:27.281Z,2.33
2023-01-19T17:09:34.075Z,2.34
2023-01-19T17:14:40.786Z,2.37
2023-01-19T17:19:47.085Z,2.37
2023-01-19T17:24:52.881Z,2.35
2023-01-19T17:29:58.585Z,2.35
2023-01-19T17:35:04.868Z,2.38
2023-01-19T17:40:12.667Z,2.36
2023-01-19T17:45:18.778Z,2.31
2023-01-19T17:50:24.884Z,2.24
2023-01-19T17:55:32.509Z,2.23
2023-01-19T18:00:38.648Z,2.24
2023-01-19T18:05:52.536Z,2.26
2023-01-19T18:11:01.138Z,2.22
2023-01-19T18:16:09.812Z,2.19
2023-01-19T18:21:17.424Z,2.19
2023-01-19T18:26:24.117Z,2.20
2023-01-19T18:31:30.863Z,2.15
2023-01-19T18:36:37.326Z,2.10
2023-01-19T18:41:43.239Z,2.10
2023-01-19T18:46:49.280Z,2.12
2023-01-19T18:51:56.235Z,2.16
2023-01-19T18:57:02.378Z,2.14
2023-01-19T19:02:10.542Z,2.10
2023-01-19T19:07:20.155Z,2.06
2023-01-19T19:12:26.532Z,2.05
2023-01-19T19:17:34.331Z,1.99
2023-01-19T19:22:40.719Z,1.92
2023-01-19T19:27:50.247Z,1.89
2023-01-19T19:32:57.225Z,1.90
2023-01-19T19:38:03.422Z,1.89
2023-01-19T19:43:09.705Z,1.82
2023-01-19T19:48:15.642Z,1.80
2023-01-19T19:53:22.147Z,1.83
2023-01-19T19:58:30.574Z,1.82
2023-01-19T20:03:36.475Z,1.79
2023-01-19T20:08:42.774Z,1.76
2023-01-19T20:13:49.303Z,1.76
2023-01-19T20:18:55.601Z,1.75
2023-01-19T20:24:04.175Z,1.74
2023-01-19T20:29:11.063Z,1.73
2023-01-19T20:34:20.139Z,1.72
2023-01-19T20:39:26.422Z,1.71
2023-01-19T20:44:32.346Z,1.67
2023-01-19T20:49:38.630Z,1.62
2023-01-19T20:54:44.406Z,1.62
2023-01-19T20:59:50.351Z,1.58
2023-01-19T21:04:56.754Z,1.53
2023-01-19T21:10:03.032Z,1.48
2023-01-19T21:15:11.436Z,1.43
2023-01-19T21:20:19.427Z,1.40
2023-01-19T21:25:25.750Z,1.32
2023-01-19T21:30:31.794Z,1.28
2023-01-19T21:35:37.814Z,1.28
2023-01-19T21:40:44.123Z,1.25
2023-01-19T21:45:51.015Z,1.18
2023-01-19T21:51:00.192Z,1.14
2023-01-19T21:56:08.273Z,1.17
2023-01-19T22:01:14.868Z,1.16
2023-01-19T22:06:20.767Z,1.09
2023-01-19T22:11:28.024Z,1.08
2023-01-19T22:16:34.492Z,1.04
2023-01-19T22:21:40.909Z,1.00
2023-01-19T22:26:47.066Z,0.95
2023-01-19T22:31:53.973Z,0.92
2023-01-19T22:37:00.135Z,0.90
2023-01-19T22:42:06.908Z,0.88
2023-01-19T22:47:12.689Z,0.85
2023-01-19T22:52:18.825Z,0.81
2023-01-19T22:57:25.259Z,0.81
2023-01-19T23:02:31.473Z,0.78
2023-01-19T23:07:37.412Z,0.75
2023-01-19T23:12:43.405Z,0.76
2023-01-19T23:17:52.925Z,0.78
2023-01-19T23:22:59.036Z,0.76
2023-01-19T23:28:05.459Z,0.74
2023-01-19T23:33:11.612Z,0.74
2023-01-19T23:38:18.156Z,0.75
2023-01-19T23:43:24.345Z,0.72
2023-01-19T23:48:30.569Z,0.71
2023-01-19T23:53:37.721Z,0.75
2023-01-19T23:58:44.700Z,0.75
